SHARK1 LBPG-LBPG
Flight info
| Callsign | SHARK1 |
|---|---|
| Flight time | 0h 15m |
| Altitude | 10000 |
| Route | LBPG LBSF |
| Aircraft | MG29/L-V/N |
Departure
| Time | 2026-05-06 19:41 |
|---|---|
| Airport | Graf Ignatievo Air Base (LBPG) |
Arrival
| Time | 2026-05-06 19:57 |
|---|---|
| Airport | Graf Ignatievo Air Base (LBPG) |
| Time | Latitude | Longitude | Altitude | Speed | Heading |
|---|---|---|---|---|---|
| 2026-05-06 19:35 | 42.29117 | 24.72966 | 650 ft | 0 kts | 255° |
| 2026-05-06 19:40 | 42.29125 | 24.72941 | 649 ft | 9 kts | 326° |
| 2026-05-06 19:40 | 42.29212 | 24.72920 | 650 ft | 10 kts | 349° |
| 2026-05-06 19:40 | 42.29261 | 24.72877 | 651 ft | 7 kts | 282° |
| 2026-05-06 19:40 | 42.29258 | 24.72826 | 651 ft | 3 kts | 260° |
| 2026-05-06 19:41 | 42.29258 | 24.72822 | 652 ft | 0 kts | 259° |
| 2026-05-06 19:41 | 42.29185 | 24.72271 | 656 ft | 157 kts | 260° |
| 2026-05-06 19:41 | 42.28901 | 24.70144 | 1862 ft | 265 kts | 258° |
| 2026-05-06 19:42 | 42.28564 | 24.67711 | 2694 ft | 241 kts | 258° |
| 2026-05-06 19:42 | 42.28435 | 24.65442 | 2820 ft | 252 kts | 294° |
| 2026-05-06 19:42 | 42.29912 | 24.64742 | 2873 ft | 253 kts | 24° |
| 2026-05-06 19:42 | 42.31211 | 24.66283 | 3100 ft | 247 kts | 57° |
| 2026-05-06 19:43 | 42.32191 | 24.68242 | 3259 ft | 256 kts | 60° |
| 2026-05-06 19:43 | 42.33152 | 24.70291 | 3477 ft | 258 kts | 59° |
| 2026-05-06 19:43 | 42.34643 | 24.71604 | 3854 ft | 258 kts | 23° |
| 2026-05-06 19:43 | 42.36284 | 24.72549 | 4258 ft | 259 kts | 25° |
| 2026-05-06 19:44 | 42.38220 | 24.73715 | 3319 ft | 351 kts | 26° |
| 2026-05-06 19:44 | 42.40595 | 24.75165 | 2898 ft | 383 kts | 26° |
| 2026-05-06 19:44 | 42.43024 | 24.76652 | 3229 ft | 386 kts | 26° |
| 2026-05-06 19:44 | 42.45479 | 24.78210 | 3308 ft | 393 kts | 33° |
| 2026-05-06 19:45 | 42.47490 | 24.80693 | 3351 ft | 396 kts | 57° |
| 2026-05-06 19:45 | 42.48589 | 24.84093 | 3380 ft | 398 kts | 80° |
| 2026-05-06 19:45 | 42.48573 | 24.87827 | 3383 ft | 401 kts | 104° |
| 2026-05-06 19:45 | 42.47502 | 24.91299 | 3416 ft | 403 kts | 125° |
| 2026-05-06 19:46 | 42.45504 | 24.93940 | 3431 ft | 406 kts | 148° |
| 2026-05-06 19:46 | 42.42911 | 24.95282 | 3456 ft | 409 kts | 171° |
| 2026-05-06 19:46 | 42.40099 | 24.95146 | 3903 ft | 401 kts | 189° |
| 2026-05-06 19:46 | 42.37414 | 24.94348 | 4560 ft | 389 kts | 194° |
| 2026-05-06 19:47 | 42.34802 | 24.93416 | 4904 ft | 388 kts | 195° |
| 2026-05-06 19:47 | 42.32175 | 24.92421 | 4890 ft | 396 kts | 196° |
| 2026-05-06 19:47 | 42.29692 | 24.90812 | 4898 ft | 402 kts | 218° |
| 2026-05-06 19:47 | 42.27944 | 24.88078 | 4932 ft | 369 kts | 243° |
| 2026-05-06 19:48 | 42.27290 | 24.84890 | 4829 ft | 345 kts | 269° |
| 2026-05-06 19:48 | 42.27556 | 24.81720 | 4363 ft | 338 kts | 282° |
| 2026-05-06 19:48 | 42.28101 | 24.78631 | 3738 ft | 338 kts | 285° |
| 2026-05-06 19:48 | 42.28732 | 24.75548 | 2886 ft | 345 kts | 286° |
| 2026-05-06 19:49 | 42.29406 | 24.72413 | 2063 ft | 349 kts | 287° |
| 2026-05-06 19:49 | 42.29155 | 24.69985 | 1942 ft | 244 kts | 132° |
| 2026-05-06 19:49 | 42.28993 | 24.71896 | 1541 ft | 220 kts | 69° |
| 2026-05-06 19:49 | 42.29451 | 24.73896 | 1584 ft | 222 kts | 74° |
| 2026-05-06 19:50 | 42.29932 | 24.75948 | 1521 ft | 231 kts | 73° |
| 2026-05-06 19:50 | 42.30442 | 24.78040 | 1394 ft | 242 kts | 73° |
| 2026-05-06 19:50 | 42.30765 | 24.79279 | 4661 ft | 117 kts | 73° |
| 2026-05-06 19:50 | 42.31122 | 24.80667 | 3655 ft | 237 kts | 74° |
| 2026-05-06 19:51 | 42.30680 | 24.81845 | 2885 ft | 286 kts | 245° |
| 2026-05-06 19:51 | 42.30310 | 24.79287 | 2750 ft | 257 kts | 256° |
| 2026-05-06 19:51 | 42.30000 | 24.77361 | 1934 ft | 183 kts | 255° |
| 2026-05-06 19:51 | 42.29709 | 24.75715 | 1249 ft | 176 kts | 254° |
| 2026-05-06 19:52 | 42.29418 | 24.74030 | 964 ft | 183 kts | 259° |
| 2026-05-06 19:52 | 42.29206 | 24.72489 | 673 ft | 157 kts | 258° |
| 2026-05-06 19:52 | 42.29004 | 24.70876 | 678 ft | 179 kts | 260° |
| 2026-05-06 19:52 | 42.28825 | 24.69422 | 2131 ft | 55 kts | 82° |
| 2026-05-06 19:53 | 42.28802 | 24.68985 | 2026 ft | 99 kts | 258° |
| 2026-05-06 19:53 | 42.28627 | 24.67333 | 1395 ft | 135 kts | 259° |
| 2026-05-06 19:53 | 42.28377 | 24.65541 | 2056 ft | 280 kts | 291° |
| 2026-05-06 19:53 | 42.29829 | 24.65375 | 2862 ft | 171 kts | 137° |
| 2026-05-06 19:54 | 42.29940 | 24.65503 | 6308 ft | 38 kts | 352° |
| 2026-05-06 19:54 | 42.29519 | 24.65660 | 3110 ft | 369 kts | 160° |
| 2026-05-06 19:54 | 42.28632 | 24.68037 | 1806 ft | 313 kts | 88° |
| 2026-05-06 19:54 | 42.29039 | 24.72158 | 917 ft | 565 kts | 81° |
| 2026-05-06 19:55 | 42.29189 | 24.71785 | 4792 ft | 248 kts | 278° |
| 2026-05-06 19:55 | 42.27923 | 24.69403 | 3420 ft | 344 kts | 227° |
| 2026-05-06 19:55 | 42.26575 | 24.67204 | 4023 ft | 272 kts | 231° |
| 2026-05-06 19:55 | 42.26599 | 24.65268 | 3335 ft | 197 kts | 315° |
| 2026-05-06 19:56 | 42.27721 | 24.64999 | 1396 ft | 192 kts | 45° |
| 2026-05-06 19:56 | 42.28344 | 24.66585 | 1169 ft | 196 kts | 51° |
| 2026-05-06 19:56 | 42.28703 | 24.68349 | 992 ft | 188 kts | 83° |
| 2026-05-06 19:56 | 42.28892 | 24.70017 | 706 ft | 172 kts | 80° |
| 2026-05-06 19:57 | 42.29028 | 24.71076 | 667 ft | 66 kts | 81° |
| 2026-05-06 19:57 | 42.29064 | 24.71377 | 662 ft | 17 kts | 81° |
| 2026-05-06 19:57 | 42.29070 | 24.71428 | 661 ft | 0 kts | 81° |